Date,TemperatureHighF,TemperatureAvgF,TemperatureLowF,DewpointHighF,DewpointAvgF,DewpointLowF,HumidityHigh,HumidityAvg,HumidityLow,PressureMaxIn,PressureMinIn,WindSpeedMaxMPH,WindSpeedAvgMPH,GustSpeedMaxMPH,PrecipitationSumIn
2013-6-1,89.2,79.1,67.3,63.9,57.1,51.9,83,49,33,0.00,0.00,6,1,11,0.00
2013-6-2,86.7,77.0,71.1,69.5,61.8,55.2,95,63,36,0.00,0.00,6,2,13,0.16
2013-6-3,78.8,71.4,64.8,70.0,58.9,36.4,98,69,35,0.00,0.00,6,1,11,0.20
2013-6-4,75.7,64.8,55.4,38.2,33.2,27.9,50,32,18,0.00,0.00,8,3,15,0.00
2013-6-5,74.7,64.3,53.1,43.0,34.4,28.6,53,34,22,0.00,0.00,6,1,8,0.00
2013-6-6,70.2,62.1,55.0,59.2,49.0,37.9,92,66,32,0.00,0.00,6,1,10,0.12
2013-6-7,61.9,60.4,59.2,61.0,59.4,57.8,98,97,91,0.00,0.00,6,1,8,2.64
2013-6-8,75.9,66.9,56.8,58.7,54.8,50.7,98,69,42,0.00,0.00,8,2,11,0.04
2013-6-9,81.0,70.3,59.5,59.0,51.4,43.4,91,56,27,0.00,0.00,5,1,9,0.00
2013-6-10,69.3,64.6,61.9,63.4,59.7,53.5,98,85,70,0.00,0.00,6,1,8,0.55
2013-6-11,78.6,69.0,61.9,68.5,59.4,52.2,98,74,46,0.00,0.00,9,3,17,0.12
2013-6-12,76.1,71.4,62.2,50.7,44.8,41.7,66,40,31,0.00,0.00,8,2,13,0.00
2013-6-13,62.4,60.1,55.9,61.6,56.6,51.4,97,89,69,0.00,0.00,6,1,11,1.10
2013-6-14,72.0,60.7,53.1,53.3,49.7,43.9,93,70,39,0.00,0.00,8,3,11,0.43
2013-6-15,80.6,68.6,58.5,53.5,44.8,34.9,80,48,20,0.00,0.00,5,2,9,0.00
2013-6-16,78.6,68.5,57.9,58.3,48.7,43.0,73,51,31,0.00,0.00,8,1,15,0.00
2013-6-17,85.3,78.6,65.8,63.1,52.9,46.7,91,43,29,0.00,0.00,8,2,13,0.00
2013-6-18,83.1,69.6,62.8,64.1,57.8,51.8,94,69,35,0.00,0.00,4,0,10,1.18
2013-6-19,77.4,67.2,57.2,59.9,44.8,32.4,91,50,22,0.00,0.00,6,2,8,0.00
2013-6-20,80.2,68.8,56.1,53.5,47.2,40.6,81,50,25,0.00,0.00,6,1,8,0.00
2013-6-21,82.2,73.1,61.0,50.3,46.8,42.6,62,41,29,0.00,0.00,6,1,8,0.00
2013-6-22,83.5,73.6,61.7,55.0,50.2,45.8,70,45,31,0.00,0.00,8,1,11,0.00
2013-6-23,87.6,77.4,66.2,64.6,58.6,52.0,81,55,34,0.00,0.00,6,2,10,0.00
2013-6-24,91.2,80.4,71.8,69.2,60.6,51.8,90,55,28,0.00,0.00,6,1,11,0.00
2013-6-25,89.4,79.0,68.7,64.9,58.9,52.4,84,53,29,0.00,0.00,8,2,14,0.00
2013-6-26,82.2,77.1,72.3,63.1,59.8,54.8,70,56,41,0.00,0.00,6,2,11,0.00
2013-6-27,85.5,76.3,68.5,71.5,63.4,58.7,98,67,41,0.00,0.00,7,2,11,1.26
2013-6-28,85.8,76.1,70.9,71.4,63.7,53.9,98,70,36,0.00,0.00,9,2,13,0.16
2013-6-29,86.7,75.5,68.7,63.7,58.8,47.6,82,59,28,0.00,0.00,6,1,11,0.00
2013-6-30,85.1,75.2,67.3,69.3,65.4,61.9,90,73,46,0.00,0.00,5,1,7,0.00